sensor_id;sensor_type;location;lat;lon;timestamp;pressure;altitude;pressure_sealevel;temperature;humidity
52137;BME280;69622;49.570;10.986;2023-07-09T00:01:05;98713.22;;;22.90;57.36
52137;BME280;69622;49.570;10.986;2023-07-09T00:04:13;98721.72;;;22.86;57.62
52137;BME280;69622;49.570;10.986;2023-07-09T00:07:22;98712.31;;;22.83;57.56
52137;BME280;69622;49.570;10.986;2023-07-09T00:10:25;98718.63;;;22.82;57.36
52137;BME280;69622;49.570;10.986;2023-07-09T00:13:27;98711.75;;;22.73;58.29
52137;BME280;69622;49.570;10.986;2023-07-09T00:16:29;98713.59;;;22.58;58.78
52137;BME280;69622;49.570;10.986;2023-07-09T00:19:30;98716.31;;;22.50;59.03
52137;BME280;69622;49.570;10.986;2023-07-09T00:22:32;98725.44;;;22.32;59.90
52137;BME280;69622;49.570;10.986;2023-07-09T00:25:33;98716.66;;;22.32;60.87
52137;BME280;69622;49.570;10.986;2023-07-09T00:28:37;98716.19;;;22.28;60.97
52137;BME280;69622;49.570;10.986;2023-07-09T00:31:39;98713.41;;;22.07;60.94
52137;BME280;69622;49.570;10.986;2023-07-09T00:34:43;98716.38;;;22.04;62.74
52137;BME280;69622;49.570;10.986;2023-07-09T00:37:49;98714.00;;;21.94;63.31
52137;BME280;69622;49.570;10.986;2023-07-09T00:44:25;98720.91;;;21.80;64.13
52137;BME280;69622;49.570;10.986;2023-07-09T00:47:42;98719.75;;;21.75;65.51
52137;BME280;69622;49.570;10.986;2023-07-09T00:50:48;98734.19;;;21.72;66.40
52137;BME280;69622;49.570;10.986;2023-07-09T00:53:59;98725.13;;;21.67;66.27
52137;BME280;69622;49.570;10.986;2023-07-09T00:57:11;98733.16;;;21.73;66.22
52137;BME280;69622;49.570;10.986;2023-07-09T01:00:14;98724.22;;;21.74;66.39
52137;BME280;69622;49.570;10.986;2023-07-09T01:03:23;98718.41;;;21.56;66.96
52137;BME280;69622;49.570;10.986;2023-07-09T01:06:40;98723.88;;;21.55;67.00
52137;BME280;69622;49.570;10.986;2023-07-09T01:09:44;98726.91;;;21.43;66.99
52137;BME280;69622;49.570;10.986;2023-07-09T01:12:46;98734.09;;;21.35;66.85
52137;BME280;69622;49.570;10.986;2023-07-09T01:15:49;98725.69;;;21.31;66.15
52137;BME280;69622;49.570;10.986;2023-07-09T01:18:52;98728.97;;;21.33;65.84
52137;BME280;69622;49.570;10.986;2023-07-09T01:21:58;98732.53;;;21.48;65.04
52137;BME280;69622;49.570;10.986;2023-07-09T01:25:04;98727.44;;;21.39;65.38
52137;BME280;69622;49.570;10.986;2023-07-09T01:28:07;98734.09;;;21.35;65.76
52137;BME280;69622;49.570;10.986;2023-07-09T01:31:09;98732.97;;;21.21;66.33
52137;BME280;69622;49.570;10.986;2023-07-09T01:34:11;98733.34;;;21.10;67.07
52137;BME280;69622;49.570;10.986;2023-07-09T01:37:15;98731.06;;;21.07;67.94
52137;BME280;69622;49.570;10.986;2023-07-09T01:40:18;98738.88;;;21.00;67.69
52137;BME280;69622;49.570;10.986;2023-07-09T01:43:31;98742.66;;;20.98;68.28
52137;BME280;69622;49.570;10.986;2023-07-09T01:46:33;98737.59;;;20.88;69.58
52137;BME280;69622;49.570;10.986;2023-07-09T01:49:35;98734.66;;;20.83;71.33
52137;BME280;69622;49.570;10.986;2023-07-09T01:52:40;98734.47;;;20.84;70.55
52137;BME280;69622;49.570;10.986;2023-07-09T01:55:43;98738.44;;;20.80;71.36
52137;BME280;69622;49.570;10.986;2023-07-09T01:58:45;98740.25;;;20.88;70.61
52137;BME280;69622;49.570;10.986;2023-07-09T02:01:47;98742.88;;;20.88;69.86
52137;BME280;69622;49.570;10.986;2023-07-09T02:04:51;98743.59;;;20.74;70.53
52137;BME280;69622;49.570;10.986;2023-07-09T02:07:53;98743.41;;;20.75;70.50
52137;BME280;69622;49.570;10.986;2023-07-09T02:10:55;98735.66;;;20.66;71.44
52137;BME280;69622;49.570;10.986;2023-07-09T02:13:56;98743.94;;;20.71;70.85
52137;BME280;69622;49.570;10.986;2023-07-09T02:16:58;98739.47;;;20.63;71.14
52137;BME280;69622;49.570;10.986;2023-07-09T02:19:59;98740.34;;;20.55;71.56
52137;BME280;69622;49.570;10.986;2023-07-09T02:23:01;98738.53;;;20.56;71.03
52137;BME280;69622;49.570;10.986;2023-07-09T02:26:03;98744.31;;;20.43;71.84
52137;BME280;69622;49.570;10.986;2023-07-09T02:29:05;98744.16;;;20.45;72.54
52137;BME280;69622;49.570;10.986;2023-07-09T02:32:07;98746.28;;;20.33;73.16
52137;BME280;69622;49.570;10.986;2023-07-09T02:35:08;98747.91;;;20.34;72.92
52137;BME280;69622;49.570;10.986;2023-07-09T02:38:10;98752.72;;;20.30;73.71
52137;BME280;69622;49.570;10.986;2023-07-09T02:41:12;98749.59;;;20.27;73.99
52137;BME280;69622;49.570;10.986;2023-07-09T02:44:13;98741.19;;;20.23;73.61
52137;BME280;69622;49.570;10.986;2023-07-09T02:47:15;98744.13;;;20.28;73.33
52137;BME280;69622;49.570;10.986;2023-07-09T02:50:16;98742.00;;;20.40;72.36
52137;BME280;69622;49.570;10.986;2023-07-09T02:53:18;98750.75;;;20.24;73.27
52137;BME280;69622;49.570;10.986;2023-07-09T02:56:20;98747.63;;;20.13;73.21
52137;BME280;69622;49.570;10.986;2023-07-09T02:59:21;98757.69;;;20.09;73.91
52137;BME280;69622;49.570;10.986;2023-07-09T03:02:23;98757.03;;;20.07;73.97
52137;BME280;69622;49.570;10.986;2023-07-09T03:05:24;98756.84;;;20.00;74.33
52137;BME280;69622;49.570;10.986;2023-07-09T03:08:26;98761.66;;;19.97;73.91
52137;BME280;69622;49.570;10.986;2023-07-09T03:11:30;98761.16;;;19.93;74.00
52137;BME280;69622;49.570;10.986;2023-07-09T03:14:32;98760.34;;;19.93;73.52
52137;BME280;69622;49.570;10.986;2023-07-09T03:17:34;98758.84;;;19.98;72.46
52137;BME280;69622;49.570;10.986;2023-07-09T03:20:35;98758.69;;;19.92;72.43
52137;BME280;69622;49.570;10.986;2023-07-09T03:23:37;98766.94;;;19.89;72.75
52137;BME280;69622;49.570;10.986;2023-07-09T03:26:38;98772.34;;;19.87;72.82
52137;BME280;69622;49.570;10.986;2023-07-09T03:29:39;98765.75;;;19.83;73.55
52137;BME280;69622;49.570;10.986;2023-07-09T03:32:43;98775.31;;;19.76;74.10
52137;BME280;69622;49.570;10.986;2023-07-09T03:35:44;98770.88;;;19.77;73.92
52137;BME280;69622;49.570;10.986;2023-07-09T03:38:47;98781.75;;;19.73;73.53
52137;BME280;69622;49.570;10.986;2023-07-09T03:41:49;98771.50;;;19.62;75.19
52137;BME280;69622;49.570;10.986;2023-07-09T03:44:50;98776.94;;;19.61;76.41
52137;BME280;69622;49.570;10.986;2023-07-09T03:47:52;98776.75;;;19.54;79.01
52137;BME280;69622;49.570;10.986;2023-07-09T03:50:53;98780.91;;;19.57;80.58
52137;BME280;69622;49.570;10.986;2023-07-09T03:53:55;98790.41;;;19.50;82.33
52137;BME280;69622;49.570;10.986;2023-07-09T03:56:56;98787.13;;;19.56;81.59
52137;BME280;69622;49.570;10.986;2023-07-09T03:59:58;98785.31;;;19.56;80.94
52137;BME280;69622;49.570;10.986;2023-07-09T04:02:59;98783.53;;;19.57;80.70
52137;BME280;69622;49.570;10.986;2023-07-09T04:06:01;98780.75;;;19.66;80.61
52137;BME280;69622;49.570;10.986;2023-07-09T04:09:03;98782.97;;;19.53;81.51
52137;BME280;69622;49.570;10.986;2023-07-09T04:12:05;98785.69;;;19.61;81.10
52137;BME280;69622;49.570;10.986;2023-07-09T04:15:07;98787.81;;;19.58;81.34
52137;BME280;69622;49.570;10.986;2023-07-09T04:18:08;98786.44;;;19.54;81.79
52137;BME280;69622;49.570;10.986;2023-07-09T04:21:10;98785.28;;;19.48;83.72
52137;BME280;69622;49.570;10.986;2023-07-09T04:24:11;98788.25;;;19.45;84.13
52137;BME280;69622;49.570;10.986;2023-07-09T04:27:13;98788.75;;;19.49;84.60
52137;BME280;69622;49.570;10.986;2023-07-09T04:30:15;98788.59;;;19.42;87.56
52137;BME280;69622;49.570;10.986;2023-07-09T04:33:18;98786.59;;;19.44;88.22
52137;BME280;69622;49.570;10.986;2023-07-09T04:36:20;98790.53;;;19.40;89.89
52137;BME280;69622;49.570;10.986;2023-07-09T04:39:21;98792.03;;;19.42;89.84
52137;BME280;69622;49.570;10.986;2023-07-09T04:42:23;98792.53;;;19.46;90.13
52137;BME280;69622;49.570;10.986;2023-07-09T04:45:24;98794.34;;;19.45;90.30
52137;BME280;69622;49.570;10.986;2023-07-09T04:48:25;98798.16;;;19.51;89.51
52137;BME280;69622;49.570;10.986;2023-07-09T04:51:27;98795.66;;;19.50;88.65
52137;BME280;69622;49.570;10.986;2023-07-09T04:54:28;98795.34;;;19.53;87.79
52137;BME280;69622;49.570;10.986;2023-07-09T04:57:30;98788.25;;;19.53;87.04
52137;BME280;69622;49.570;10.986;2023-07-09T05:00:32;98788.81;;;19.57;85.17
52137;BME280;69622;49.570;10.986;2023-07-09T05:03:33;98797.66;;;19.48;85.18
52137;BME280;69622;49.570;10.986;2023-07-09T05:06:35;98795.25;;;19.62;84.12
52137;BME280;69622;49.570;10.986;2023-07-09T05:09:36;98796.06;;;19.63;82.29
52137;BME280;69622;49.570;10.986;2023-07-09T05:12:48;98806.44;;;19.56;82.75
52137;BME280;69622;49.570;10.986;2023-07-09T05:15:50;98808.44;;;19.70;82.96
52137;BME280;69622;49.570;10.986;2023-07-09T05:18:52;98801.22;;;19.72;83.53
52137;BME280;69622;49.570;10.986;2023-07-09T05:21:53;98800.34;;;19.72;80.97
52137;BME280;69622;49.570;10.986;2023-07-09T05:24:55;98805.63;;;19.72;80.16
52137;BME280;69622;49.570;10.986;2023-07-09T05:27:57;98809.25;;;19.71;77.06
52137;BME280;69622;49.570;10.986;2023-07-09T05:30:59;98804.97;;;19.70;77.06
52137;BME280;69622;49.570;10.986;2023-07-09T05:34:00;98805.38;;;19.91;76.22
52137;BME280;69622;49.570;10.986;2023-07-09T05:37:02;98811.78;;;19.89;75.81
52137;BME280;69622;49.570;10.986;2023-07-09T05:40:05;98808.66;;;20.01;74.78
52137;BME280;69622;49.570;10.986;2023-07-09T05:43:06;98808.00;;;19.91;75.21
52137;BME280;69622;49.570;10.986;2023-07-09T05:46:08;98804.53;;;19.91;72.11
52137;BME280;69622;49.570;10.986;2023-07-09T05:49:09;98808.84;;;20.08;69.92
52137;BME280;69622;49.570;10.986;2023-07-09T05:52:15;98808.00;;;20.08;70.09
52137;BME280;69622;49.570;10.986;2023-07-09T05:55:16;98811.00;;;20.21;68.54
52137;BME280;69622;49.570;10.986;2023-07-09T05:58:18;98818.09;;;20.20;68.42
52137;BME280;69622;49.570;10.986;2023-07-09T06:01:20;98802.56;;;20.25;68.07
52137;BME280;69622;49.570;10.986;2023-07-09T06:04:21;98810.16;;;20.37;67.54
52137;BME280;69622;49.570;10.986;2023-07-09T06:07:23;98818.94;;;20.45;66.89
52137;BME280;69622;49.570;10.986;2023-07-09T06:10:25;98818.25;;;20.68;66.97
52137;BME280;69622;49.570;10.986;2023-07-09T06:13:27;98815.78;;;20.42;67.94
52137;BME280;69622;49.570;10.986;2023-07-09T06:16:32;98821.06;;;20.58;67.31
52137;BME280;69622;49.570;10.986;2023-07-09T06:19:33;98825.34;;;20.51;67.85
52137;BME280;69622;49.570;10.986;2023-07-09T06:22:35;98822.06;;;20.57;69.57
52137;BME280;69622;49.570;10.986;2023-07-09T06:25:38;98821.75;;;20.52;69.71
52137;BME280;69622;49.570;10.986;2023-07-09T06:28:39;98818.09;;;20.69;68.01
52137;BME280;69622;49.570;10.986;2023-07-09T06:31:41;98820.47;;;20.95;67.79
52137;BME280;69622;49.570;10.986;2023-07-09T06:34:44;98817.72;;;20.88;67.52
52137;BME280;69622;49.570;10.986;2023-07-09T06:37:45;98825.38;;;21.14;65.31
52137;BME280;69622;49.570;10.986;2023-07-09T06:40:46;98825.84;;;21.34;66.02
52137;BME280;69622;49.570;10.986;2023-07-09T06:43:48;98829.19;;;21.12;69.36
52137;BME280;69622;49.570;10.986;2023-07-09T06:46:49;98825.50;;;21.37;66.71
52137;BME280;69622;49.570;10.986;2023-07-09T06:49:51;98820.09;;;21.14;68.92
52137;BME280;69622;49.570;10.986;2023-07-09T06:52:52;98832.16;;;21.64;65.37
52137;BME280;69622;49.570;10.986;2023-07-09T06:55:54;98828.44;;;21.73;64.67
52137;BME280;69622;49.570;10.986;2023-07-09T06:58:57;98839.19;;;22.11;63.39
52137;BME280;69622;49.570;10.986;2023-07-09T07:01:58;98833.19;;;22.09;63.18
52137;BME280;69622;49.570;10.986;2023-07-09T07:05:00;98836.03;;;22.07;64.59
52137;BME280;69622;49.570;10.986;2023-07-09T07:08:02;98834.44;;;22.44;62.12
52137;BME280;69622;49.570;10.986;2023-07-09T07:11:04;98827.31;;;22.22;64.37
52137;BME280;69622;49.570;10.986;2023-07-09T07:14:07;98831.28;;;22.26;65.25
52137;BME280;69622;49.570;10.986;2023-07-09T07:17:08;98829.06;;;22.52;64.56
52137;BME280;69622;49.570;10.986;2023-07-09T07:20:11;98827.72;;;22.33;66.79
52137;BME280;69622;49.570;10.986;2023-07-09T07:23:13;98821.47;;;22.49;69.33
52137;BME280;69622;49.570;10.986;2023-07-09T07:26:15;98823.47;;;22.47;69.00
52137;BME280;69622;49.570;10.986;2023-07-09T07:29:16;98822.75;;;23.06;64.24
52137;BME280;69622;49.570;10.986;2023-07-09T07:32:17;98827.50;;;23.10;63.75
52137;BME280;69622;49.570;10.986;2023-07-09T07:35:19;98826.22;;;22.91;63.30
52137;BME280;69622;49.570;10.986;2023-07-09T07:38:21;98829.41;;;23.16;65.55
52137;BME280;69622;49.570;10.986;2023-07-09T07:41:22;98819.44;;;23.04;62.33
52137;BME280;69622;49.570;10.986;2023-07-09T07:44:24;98824.94;;;23.17;63.73
52137;BME280;69622;49.570;10.986;2023-07-09T07:47:26;98823.41;;;23.08;63.16
52137;BME280;69622;49.570;10.986;2023-07-09T07:50:28;98823.09;;;23.02;63.82
52137;BME280;69622;49.570;10.986;2023-07-09T07:53:30;98825.47;;;23.42;62.62
52137;BME280;69622;49.570;10.986;2023-07-09T07:56:32;98825.44;;;23.56;62.03
52137;BME280;69622;49.570;10.986;2023-07-09T07:59:33;98824.72;;;23.48;63.10
52137;BME280;69622;49.570;10.986;2023-07-09T08:02:36;98815.41;;;23.52;64.07
52137;BME280;69622;49.570;10.986;2023-07-09T08:05:37;98818.88;;;23.67;61.10
52137;BME280;69622;49.570;10.986;2023-07-09T08:08:39;98817.50;;;23.93;61.19
52137;BME280;69622;49.570;10.986;2023-07-09T08:11:41;98812.38;;;24.12;59.53
52137;BME280;69622;49.570;10.986;2023-07-09T08:14:45;98814.81;;;24.14;60.71
52137;BME280;69622;49.570;10.986;2023-07-09T08:17:47;98811.75;;;24.60;60.03
52137;BME280;69622;49.570;10.986;2023-07-09T08:20:48;98808.78;;;24.20;60.10
52137;BME280;69622;49.570;10.986;2023-07-09T08:23:50;98803.69;;;24.74;59.07
52137;BME280;69622;49.570;10.986;2023-07-09T08:26:51;98798.53;;;24.66;58.61
52137;BME280;69622;49.570;10.986;2023-07-09T08:29:53;98806.34;;;25.02;58.81
52137;BME280;69622;49.570;10.986;2023-07-09T08:32:55;98804.94;;;25.06;56.56
52137;BME280;69622;49.570;10.986;2023-07-09T08:35:57;98806.09;;;24.97;56.76
52137;BME280;69622;49.570;10.986;2023-07-09T08:39:01;98808.50;;;25.68;53.89
52137;BME280;69622;49.570;10.986;2023-07-09T08:42:16;98794.53;;;25.59;55.22
52137;BME280;69622;49.570;10.986;2023-07-09T08:45:31;98804.06;;;25.88;54.48
52137;BME280;69622;49.570;10.986;2023-07-09T08:48:38;98798.28;;;25.85;55.63
52137;BME280;69622;49.570;10.986;2023-07-09T08:51:42;98798.69;;;25.82;56.21
52137;BME280;69622;49.570;10.986;2023-07-09T08:54:45;98793.03;;;25.44;58.50
52137;BME280;69622;49.570;10.986;2023-07-09T08:57:52;98795.25;;;26.01;55.30
52137;BME280;69622;49.570;10.986;2023-07-09T09:04:10;98800.00;;;26.45;48.76
52137;BME280;69622;49.570;10.986;2023-07-09T09:07:27;98802.22;;;26.88;47.86
52137;BME280;69622;49.570;10.986;2023-07-09T09:10:42;98800.41;;;26.62;49.04
52137;BME280;69622;49.570;10.986;2023-07-09T09:13:45;98803.28;;;26.61;50.87
52137;BME280;69622;49.570;10.986;2023-07-09T09:16:47;98804.13;;;26.68;49.63
52137;BME280;69622;49.570;10.986;2023-07-09T09:19:57;98807.09;;;27.11;47.90
52137;BME280;69622;49.570;10.986;2023-07-09T09:23:13;98800.41;;;26.69;46.73
52137;BME280;69622;49.570;10.986;2023-07-09T09:26:18;98805.53;;;26.64;48.08
52137;BME280;69622;49.570;10.986;2023-07-09T09:29:24;98793.06;;;27.29;45.17
52137;BME280;69622;49.570;10.986;2023-07-09T09:32:31;98794.72;;;27.30;46.75
52137;BME280;69622;49.570;10.986;2023-07-09T09:35:42;98795.97;;;27.34;46.79
52137;BME280;69622;49.570;10.986;2023-07-09T09:38:50;98798.06;;;27.19;45.15
52137;BME280;69622;49.570;10.986;2023-07-09T09:41:57;98794.19;;;27.66;44.52
52137;BME280;69622;49.570;10.986;2023-07-09T09:44:59;98805.22;;;27.76;44.95
52137;BME280;69622;49.570;10.986;2023-07-09T09:48:05;98798.00;;;28.40;40.25
52137;BME280;69622;49.570;10.986;2023-07-09T09:51:12;98799.03;;;27.75;41.37
52137;BME280;69622;49.570;10.986;2023-07-09T09:54:19;98797.25;;;27.63;42.45
52137;BME280;69622;49.570;10.986;2023-07-09T09:57:23;98801.09;;;27.80;40.78
52137;BME280;69622;49.570;10.986;2023-07-09T10:00:27;98808.31;;;28.04;40.16
52137;BME280;69622;49.570;10.986;2023-07-09T10:03:34;98801.88;;;27.87;40.71
52137;BME280;69622;49.570;10.986;2023-07-09T10:06:41;98802.38;;;27.20;42.51
52137;BME280;69622;49.570;10.986;2023-07-09T10:09:49;98788.50;;;27.49;42.26
52137;BME280;69622;49.570;10.986;2023-07-09T10:12:57;98786.56;;;28.01;40.74
52137;BME280;69622;49.570;10.986;2023-07-09T10:16:10;98785.66;;;28.39;39.59
52137;BME280;69622;49.570;10.986;2023-07-09T10:19:22;98791.66;;;28.09;40.40
52137;BME280;69622;49.570;10.986;2023-07-09T10:22:43;98782.91;;;28.27;39.55
52137;BME280;69622;49.570;10.986;2023-07-09T10:25:57;98787.81;;;28.30;39.67
52137;BME280;69622;49.570;10.986;2023-07-09T10:29:37;98779.81;;;27.92;41.88
52137;BME280;69622;49.570;10.986;2023-07-09T10:33:10;98780.28;;;28.45;40.51
52137;BME280;69622;49.570;10.986;2023-07-09T10:36:21;98779.59;;;28.75;38.77
52137;BME280;69622;49.570;10.986;2023-07-09T10:39:37;98772.19;;;28.95;38.20
52137;BME280;69622;49.570;10.986;2023-07-09T10:42:44;98773.22;;;29.12;37.87
52137;BME280;69622;49.570;10.986;2023-07-09T10:45:47;98781.59;;;29.34;38.41
52137;BME280;69622;49.570;10.986;2023-07-09T10:48:51;98779.72;;;29.71;34.46
52137;BME280;69622;49.570;10.986;2023-07-09T10:55:28;98761.91;;;29.29;36.54
52137;BME280;69622;49.570;10.986;2023-07-09T10:58:41;98762.09;;;29.45;36.13
52137;BME280;69622;49.570;10.986;2023-07-09T11:01:55;98759.59;;;29.92;35.88
52137;BME280;69622;49.570;10.986;2023-07-09T11:05:00;98761.09;;;30.30;35.50
52137;BME280;69622;49.570;10.986;2023-07-09T11:08:15;98763.81;;;30.65;34.47
52137;BME280;69622;49.570;10.986;2023-07-09T11:11:33;98763.84;;;30.11;36.54
52137;BME280;69622;49.570;10.986;2023-07-09T11:14:41;98761.66;;;29.67;37.15
52137;BME280;69622;49.570;10.986;2023-07-09T11:17:46;98762.00;;;29.82;38.45
52137;BME280;69622;49.570;10.986;2023-07-09T11:21:04;98749.97;;;29.43;38.19
52137;BME280;69622;49.570;10.986;2023-07-09T11:27:51;98751.66;;;30.51;35.16
52137;BME280;69622;49.570;10.986;2023-07-09T11:30:54;98738.91;;;30.58;34.77
52137;BME280;69622;49.570;10.986;2023-07-09T11:34:10;98737.78;;;30.77;34.58
52137;BME280;69622;49.570;10.986;2023-07-09T11:37:25;98732.41;;;29.77;36.34
52137;BME280;69622;49.570;10.986;2023-07-09T11:40:27;98738.47;;;30.37;35.57
52137;BME280;69622;49.570;10.986;2023-07-09T11:43:32;98738.47;;;30.49;35.57
52137;BME280;69622;49.570;10.986;2023-07-09T11:46:35;98729.50;;;30.32;35.18
52137;BME280;69622;49.570;10.986;2023-07-09T11:49:51;98720.97;;;30.47;34.54
52137;BME280;69622;49.570;10.986;2023-07-09T11:53:04;98725.97;;;30.08;35.04
52137;BME280;69622;49.570;10.986;2023-07-09T11:56:08;98720.28;;;30.63;35.45
52137;BME280;69622;49.570;10.986;2023-07-09T11:59:11;98721.09;;;31.15;33.17
52137;BME280;69622;49.570;10.986;2023-07-09T12:02:18;98718.88;;;31.52;32.00
52137;BME280;69622;49.570;10.986;2023-07-09T12:05:25;98711.78;;;31.92;31.74
52137;BME280;69622;49.570;10.986;2023-07-09T12:08:32;98715.84;;;31.49;33.24
52137;BME280;69622;49.570;10.986;2023-07-09T12:11:35;98703.06;;;30.99;34.73
52137;BME280;69622;49.570;10.986;2023-07-09T12:14:36;98704.06;;;31.67;32.14
52137;BME280;69622;49.570;10.986;2023-07-09T12:17:38;98710.91;;;31.57;31.66
52137;BME280;69622;49.570;10.986;2023-07-09T12:20:41;98710.97;;;31.74;31.89
52137;BME280;69622;49.570;10.986;2023-07-09T12:23:46;98698.31;;;31.29;32.54
52137;BME280;69622;49.570;10.986;2023-07-09T12:27:31;98693.06;;;30.83;33.29
52137;BME280;69622;49.570;10.986;2023-07-09T12:30:13;98695.16;;;30.81;32.69
52137;BME280;69622;49.570;10.986;2023-07-09T12:33:19;98686.06;;;30.58;34.05
52137;BME280;69622;49.570;10.986;2023-07-09T12:36:23;98685.59;;;30.73;34.53
52137;BME280;69622;49.570;10.986;2023-07-09T12:39:27;98682.44;;;31.73;31.39
52137;BME280;69622;49.570;10.986;2023-07-09T12:42:33;98677.69;;;31.64;31.34
52137;BME280;69622;49.570;10.986;2023-07-09T12:45:35;98676.97;;;32.02;30.91
52137;BME280;69622;49.570;10.986;2023-07-09T12:48:37;98669.63;;;32.31;31.85
52137;BME280;69622;49.570;10.986;2023-07-09T12:51:38;98666.47;;;33.21;29.86
52137;BME280;69622;49.570;10.986;2023-07-09T12:54:41;98669.03;;;33.11;29.76
52137;BME280;69622;49.570;10.986;2023-07-09T12:57:42;98676.34;;;32.89;29.23
52137;BME280;69622;49.570;10.986;2023-07-09T13:00:48;98668.69;;;32.81;29.09
52137;BME280;69622;49.570;10.986;2023-07-09T13:03:56;98672.16;;;33.52;28.33
52137;BME280;69622;49.570;10.986;2023-07-09T13:06:58;98666.13;;;33.40;28.90
52137;BME280;69622;49.570;10.986;2023-07-09T13:10:16;98657.66;;;32.82;30.28
52137;BME280;69622;49.570;10.986;2023-07-09T13:13:20;98653.59;;;33.01;30.16
52137;BME280;69622;49.570;10.986;2023-07-09T13:16:22;98661.84;;;33.76;29.37
52137;BME280;69622;49.570;10.986;2023-07-09T13:19:24;98660.50;;;34.47;27.44
52137;BME280;69622;49.570;10.986;2023-07-09T13:22:28;98662.88;;;33.70;28.12
52137;BME280;69622;49.570;10.986;2023-07-09T13:25:29;98658.66;;;33.79;27.60
52137;BME280;69622;49.570;10.986;2023-07-09T13:28:45;98654.00;;;34.06;27.64
52137;BME280;69622;49.570;10.986;2023-07-09T13:31:47;98651.19;;;33.59;28.32
52137;BME280;69622;49.570;10.986;2023-07-09T13:34:49;98649.78;;;33.83;27.70
52137;BME280;69622;49.570;10.986;2023-07-09T13:37:51;98654.81;;;33.16;28.66
52137;BME280;69622;49.570;10.986;2023-07-09T13:40:57;98646.38;;;32.63;29.96
52137;BME280;69622;49.570;10.986;2023-07-09T13:44:00;98643.72;;;33.12;28.91
52137;BME280;69622;49.570;10.986;2023-07-09T13:47:02;98658.13;;;33.82;28.22
52137;BME280;69622;49.570;10.986;2023-07-09T13:50:03;98649.09;;;33.34;27.37
52137;BME280;69622;49.570;10.986;2023-07-09T13:53:12;98639.63;;;32.61;29.28
52137;BME280;69622;49.570;10.986;2023-07-09T13:56:14;98638.66;;;33.75;28.28
52137;BME280;69622;49.570;10.986;2023-07-09T13:59:22;98642.53;;;33.52;28.88
52137;BME280;69622;49.570;10.986;2023-07-09T14:02:28;98634.94;;;33.81;28.21
52137;BME280;69622;49.570;10.986;2023-07-09T14:05:33;98638.25;;;33.88;27.71
52137;BME280;69622;49.570;10.986;2023-07-09T14:08:35;98634.19;;;33.85;27.85
52137;BME280;69622;49.570;10.986;2023-07-09T14:11:41;98627.13;;;33.84;27.39
52137;BME280;69622;49.570;10.986;2023-07-09T14:14:43;98619.34;;;34.30;26.37
52137;BME280;69622;49.570;10.986;2023-07-09T14:17:46;98621.03;;;35.09;26.44
52137;BME280;69622;49.570;10.986;2023-07-09T14:20:50;98611.09;;;34.52;26.59
52137;BME280;69622;49.570;10.986;2023-07-09T14:23:52;98605.78;;;34.72;27.07
52137;BME280;69622;49.570;10.986;2023-07-09T14:26:57;98607.72;;;34.87;27.25
52137;BME280;69622;49.570;10.986;2023-07-09T14:29:59;98609.03;;;34.84;26.00
52137;BME280;69622;49.570;10.986;2023-07-09T14:33:01;98607.50;;;34.99;25.69
52137;BME280;69622;49.570;10.986;2023-07-09T14:36:02;98600.50;;;35.13;26.38
52137;BME280;69622;49.570;10.986;2023-07-09T14:39:09;98601.81;;;34.90;26.05
52137;BME280;69622;49.570;10.986;2023-07-09T14:42:12;98590.41;;;34.78;26.57
52137;BME280;69622;49.570;10.986;2023-07-09T14:48:20;98585.31;;;34.87;26.26
52137;BME280;69622;49.570;10.986;2023-07-09T14:51:22;98581.09;;;35.41;25.13
52137;BME280;69622;49.570;10.986;2023-07-09T14:54:28;98578.69;;;34.47;25.65
52137;BME280;69622;49.570;10.986;2023-07-09T14:57:30;98584.16;;;34.67;26.90
52137;BME280;69622;49.570;10.986;2023-07-09T15:00:31;98581.28;;;34.94;26.75
52137;BME280;69622;49.570;10.986;2023-07-09T15:03:33;98574.31;;;35.44;24.36
52137;BME280;69622;49.570;10.986;2023-07-09T15:06:34;98572.38;;;34.94;25.58
52137;BME280;69622;49.570;10.986;2023-07-09T15:09:36;98578.06;;;35.12;26.52
52137;BME280;69622;49.570;10.986;2023-07-09T15:12:39;98574.28;;;35.64;25.50
52137;BME280;69622;49.570;10.986;2023-07-09T15:15:41;98571.31;;;35.71;24.83
52137;BME280;69622;49.570;10.986;2023-07-09T15:18:43;98559.69;;;35.50;25.56
52137;BME280;69622;49.570;10.986;2023-07-09T15:21:45;98559.69;;;35.09;26.32
52137;BME280;69622;49.570;10.986;2023-07-09T15:24:47;98559.41;;;35.01;26.09
52137;BME280;69622;49.570;10.986;2023-07-09T15:27:50;98560.38;;;34.64;25.68
52137;BME280;69622;49.570;10.986;2023-07-09T15:30:51;98558.91;;;35.39;24.88
52137;BME280;69622;49.570;10.986;2023-07-09T15:33:53;98553.25;;;35.41;25.16
52137;BME280;69622;49.570;10.986;2023-07-09T15:36:54;98549.53;;;34.44;25.94
52137;BME280;69622;49.570;10.986;2023-07-09T15:39:56;98556.91;;;34.79;25.61
52137;BME280;69622;49.570;10.986;2023-07-09T15:43:05;98557.44;;;34.08;26.68
52137;BME280;69622;49.570;10.986;2023-07-09T15:46:16;98549.66;;;34.22;25.50
52137;BME280;69622;49.570;10.986;2023-07-09T15:49:19;98555.31;;;34.10;26.03
52137;BME280;69622;49.570;10.986;2023-07-09T15:52:21;98552.56;;;34.05;27.78
52137;BME280;69622;49.570;10.986;2023-07-09T15:55:24;98544.81;;;33.77;27.86
52137;BME280;69622;49.570;10.986;2023-07-09T15:58:32;98539.38;;;33.67;28.36
52137;BME280;69622;49.570;10.986;2023-07-09T16:01:36;98543.19;;;33.76;27.61
52137;BME280;69622;49.570;10.986;2023-07-09T16:04:38;98538.25;;;34.00;27.64
52137;BME280;69622;49.570;10.986;2023-07-09T16:07:39;98537.41;;;33.94;27.54
52137;BME280;69622;49.570;10.986;2023-07-09T16:10:41;98541.06;;;33.78;28.50
52137;BME280;69622;49.570;10.986;2023-07-09T16:13:43;98539.84;;;33.58;28.79
52137;BME280;69622;49.570;10.986;2023-07-09T16:16:45;98530.13;;;33.57;28.72
52137;BME280;69622;49.570;10.986;2023-07-09T16:19:51;98527.84;;;33.39;28.64